Time;durP1;ratioP1;P1;durP2;ratioP2;P2;SDS_P1;SDS_P2;PMS_P1;PMS_P2;Temp;Humidity;BMP_temperature;BMP_pressure;BME280_temperature;BME280_humidity;BME280_pressure;Samples;Min_cycle;Max_cycle;Signal;HPM_P1;HPM_P2
2023/04/09 00:01:02;;;;;;;54.13;39.10;;;10.60;99.90;;;;;;6280391;22;20027;-91
2023/04/09 00:03:28;;;;;;;51.92;37.10;;;10.50;99.90;;;;;;6306881;22;20015;-91
2023/04/09 00:05:56;;;;;;;51.30;37.53;;;10.50;99.90;;;;;;6280001;22;20019;-91
2023/04/09 00:08:25;;;;;;;52.83;39.33;;;10.50;99.90;;;;;;6280376;22;20427;-91
2023/04/09 00:10:51;;;;;;;54.42;37.88;;;10.50;99.90;;;;;;6279195;22;20408;-91
2023/04/09 00:13:19;;;;;;;52.70;38.10;;;10.40;99.90;;;;;;6280739;22;20046;-91
2023/04/09 00:15:45;;;;;;;54.90;37.97;;;10.50;99.90;;;;;;6307655;22;20018;-90
2023/04/09 00:18:11;;;;;;;56.20;39.42;;;10.50;99.90;;;;;;6278821;22;20077;-91
2023/04/09 00:20:37;;;;;;;56.05;39.50;;;10.40;99.90;;;;;;6307707;22;20378;-91
2023/04/09 00:23:03;;;;;;;59.60;41.60;;;10.40;99.90;;;;;;6279736;22;20043;-91
2023/04/09 00:25:29;;;;;;;60.08;42.45;;;10.40;99.90;;;;;;6279326;22;20030;-91
2023/04/09 00:27:55;;;;;;;51.97;38.55;;;10.40;99.90;;;;;;6306578;22;20083;-91
2023/04/09 00:30:23;;;;;;;57.13;38.53;;;10.40;99.90;;;;;;6307697;22;20011;-92
2023/04/09 00:32:49;;;;;;;58.38;40.38;;;10.40;99.90;;;;;;6305885;22;20017;-91
2023/04/09 00:35:16;;;;;;;55.03;38.67;;;10.40;99.90;;;;;;6274399;22;20039;-91
2023/04/09 00:37:44;;;;;;;59.85;42.17;;;10.30;99.90;;;;;;6274664;22;20016;-91
2023/04/09 00:40:10;;;;;;;57.63;39.65;;;10.30;99.90;;;;;;6273750;22;20506;-91
2023/04/09 00:42:36;;;;;;;55.85;40.03;;;10.30;99.90;;;;;;6274992;22;20016;-92
2023/04/09 00:45:03;;;;;;;59.50;40.90;;;10.30;99.90;;;;;;6275416;22;20340;-91
2023/04/09 00:47:29;;;;;;;58.05;41.28;;;10.20;99.90;;;;;;6275634;22;20008;-91
2023/04/09 00:49:56;;;;;;;57.75;39.13;;;10.30;99.90;;;;;;6274873;22;20444;-91
2023/04/09 00:52:23;;;;;;;57.78;39.85;;;10.30;99.90;;;;;;6275758;22;20011;-91
2023/04/09 00:54:52;;;;;;;57.47;40.58;;;10.20;99.90;;;;;;6274447;22;20047;-91
2023/04/09 00:57:18;;;;;;;57.75;40.22;;;10.20;99.90;;;;;;6275039;22;20459;-91
2023/04/09 00:59:47;;;;;;;58.00;39.97;;;10.20;99.90;;;;;;6275343;22;20086;-91
2023/04/09 01:02:15;;;;;;;57.70;38.50;;;10.20;99.90;;;;;;6276500;22;20015;-91
2023/04/09 01:04:42;;;;;;;58.53;40.42;;;10.20;99.90;;;;;;6274267;22;20024;-91
2023/04/09 01:07:30;;;;;;;58.92;41.00;;;10.20;99.90;;;;;;6273950;22;20470;-92
2023/04/09 01:10:13;;;;;;;55.50;38.85;;;10.10;99.90;;;;;;6276766;22;20061;-91
2023/04/09 01:12:54;;;;;;;53.30;38.65;;;10.10;99.90;;;;;;6274978;22;20016;-91
2023/04/09 01:15:28;;;;;;;55.97;37.92;;;10.10;99.90;;;;;;6273992;22;20066;-91
2023/04/09 01:18:31;;;;;;;54.08;36.75;;;10.10;99.90;;;;;;6276376;22;20011;-91
2023/04/09 01:21:23;;;;;;;57.70;39.25;;;10.10;99.90;;;;;;6274383;22;20317;-92
2023/04/09 01:24:00;;;;;;;54.90;37.60;;;10.10;99.90;;;;;;6275636;22;20022;-91
2023/04/09 01:26:48;;;;;;;54.20;33.70;;;10.00;99.90;;;;;;6274465;22;20027;-91
2023/04/09 01:29:16;;;;;;;54.70;37.55;;;10.00;99.90;;;;;;6275582;22;20018;-91
2023/04/09 01:31:42;;;;;;;49.70;33.35;;;10.00;99.90;;;;;;6276198;22;20023;-91
2023/04/09 01:34:09;;;;;;;49.25;32.75;;;10.10;99.90;;;;;;6286303;22;20050;-92
2023/04/09 01:36:38;;;;;;;55.13;36.47;;;10.00;99.90;;;;;;6278740;22;20069;-92
2023/04/09 01:39:05;;;;;;;51.65;35.42;;;10.00;99.90;;;;;;6307838;22;20460;-91
2023/04/09 01:41:33;;;;;;;46.63;32.55;;;10.00;99.90;;;;;;6280881;22;20019;-90
2023/04/09 01:44:01;;;;;;;50.28;34.40;;;10.00;99.90;;;;;;6309199;22;20027;-92
2023/04/09 01:46:28;;;;;;;48.15;31.98;;;9.90;99.90;;;;;;6309317;22;20011;-91
2023/04/09 01:48:58;;;;;;;50.10;33.13;;;10.00;99.90;;;;;;6280408;22;20082;-92
2023/04/09 01:51:26;;;;;;;48.40;32.97;;;9.90;99.90;;;;;;6309374;22;20062;-91
2023/04/09 01:53:59;;;;;;;50.47;33.97;;;9.90;99.90;;;;;;6281511;22;20019;-91
2023/04/09 01:56:25;;;;;;;51.08;32.97;;;9.90;99.90;;;;;;6280621;22;20451;-91
2023/04/09 01:58:51;;;;;;;46.90;31.35;;;9.90;99.90;;;;;;6281582;22;20807;-90
2023/04/09 02:01:31;;;;;;;47.15;32.42;;;9.90;99.90;;;;;;6281385;22;20019;-90
2023/04/09 02:04:17;;;;;;;47.47;32.17;;;9.90;99.90;;;;;;6308522;22;20015;-90
2023/04/09 02:07:05;;;;;;;48.20;32.67;;;9.80;99.90;;;;;;6308904;22;20047;-91
2023/04/09 02:09:32;;;;;;;45.35;31.05;;;9.80;99.90;;;;;;6281563;22;20023;-91
2023/04/09 02:12:02;;;;;;;48.40;31.60;;;9.80;99.90;;;;;;6280757;22;20011;-91
2023/04/09 02:14:30;;;;;;;47.55;31.05;;;9.80;99.90;;;;;;6281835;22;20015;-91
2023/04/09 02:16:56;;;;;;;44.70;30.40;;;9.80;99.90;;;;;;6280030;22;20113;-91
2023/04/09 02:19:21;;;;;;;45.85;30.85;;;9.80;99.90;;;;;;6308925;22;20016;-90
2023/04/09 02:21:47;;;;;;;42.80;29.45;;;9.80;99.90;;;;;;6281029;22;20027;-91
2023/04/09 02:24:13;;;;;;;46.65;31.08;;;9.80;99.90;;;;;;6280351;22;20030;-91
2023/04/09 02:26:41;;;;;;;45.15;31.02;;;9.70;99.90;;;;;;6281513;22;20018;-92
2023/04/09 02:29:06;;;;;;;44.85;30.25;;;9.70;99.90;;;;;;6281372;22;20365;-91
2023/04/09 02:31:35;;;;;;;44.22;29.73;;;9.70;99.90;;;;;;6307614;22;20042;-91
2023/04/09 02:34:01;;;;;;;43.53;29.73;;;9.70;99.90;;;;;;6308591;22;20466;-90
2023/04/09 02:36:26;;;;;;;44.92;30.38;;;9.70;99.90;;;;;;6309075;22;20015;-91
2023/04/09 02:38:55;;;;;;;46.58;29.77;;;9.60;99.90;;;;;;6279887;22;20508;-91
2023/04/09 02:41:20;;;;;;;41.05;28.98;;;9.60;99.90;;;;;;6281566;22;20022;-92
2023/04/09 02:43:48;;;;;;;44.20;29.50;;;9.60;99.90;;;;;;6280698;22;20090;-90
2023/04/09 02:46:14;;;;;;;43.47;28.88;;;9.60;99.90;;;;;;6280699;22;20073;-91
2023/04/09 02:48:40;;;;;;;39.35;27.92;;;9.60;99.90;;;;;;6308524;22;20331;-91
2023/04/09 02:51:06;;;;;;;39.53;27.85;;;9.50;99.90;;;;;;6308438;22;20033;-92
2023/04/09 02:53:31;;;;;;;38.03;27.33;;;9.50;99.90;;;;;;6280411;22;20015;-91
2023/04/09 02:55:57;;;;;;;41.30;28.08;;;9.50;99.90;;;;;;6281152;22;20444;-90
2023/04/09 02:58:23;;;;;;;45.13;30.05;;;9.50;99.90;;;;;;6308731;22;20012;-91
2023/04/09 03:00:48;;;;;;;39.05;28.35;;;9.40;99.90;;;;;;6307493;22;20034;-91
2023/04/09 03:03:14;;;;;;;43.00;29.27;;;9.50;99.90;;;;;;6308465;22;20015;-91
2023/04/09 03:05:40;;;;;;;38.95;28.60;;;9.50;99.90;;;;;;6280645;22;20470;-90
2023/04/09 03:08:05;;;;;;;44.55;29.58;;;9.40;99.90;;;;;;6307747;22;20019;-92
2023/04/09 03:10:31;;;;;;;41.72;29.77;;;9.40;99.90;;;;;;6281009;22;20019;-91
2023/04/09 03:12:57;;;;;;;46.17;30.08;;;9.40;99.90;;;;;;6280899;22;20308;-91
2023/04/09 03:15:22;;;;;;;43.58;28.75;;;9.40;99.90;;;;;;6308600;22;20026;-90
2023/04/09 03:17:48;;;;;;;42.88;28.77;;;9.40;99.90;;;;;;6280501;22;20015;-90
2023/04/09 03:20:14;;;;;;;38.80;26.90;;;9.40;99.90;;;;;;6279749;22;20433;-90
2023/04/09 03:22:40;;;;;;;40.85;28.05;;;9.40;99.90;;;;;;6307948;22;20015;-91
2023/04/09 03:25:06;;;;;;;44.33;27.77;;;9.40;99.90;;;;;;6308385;22;20026;-91
2023/04/09 03:27:35;;;;;;;41.97;28.30;;;9.40;99.90;;;;;;6307373;22;20344;-91
2023/04/09 03:30:03;;;;;;;44.65;28.98;;;9.40;99.90;;;;;;6308442;22;20022;-91
2023/04/09 03:32:30;;;;;;;39.42;28.23;;;9.40;99.90;;;;;;6281187;22;20016;-91
2023/04/09 03:34:59;;;;;;;43.00;29.33;;;9.40;99.90;;;;;;6306665;22;20076;-91
2023/04/09 03:37:24;;;;;;;47.85;27.98;;;9.40;99.90;;;;;;6308359;22;20050;-91
2023/04/09 03:39:50;;;;;;;42.22;28.55;;;9.30;99.90;;;;;;6280704;22;20046;-91
2023/04/09 03:42:16;;;;;;;40.90;28.58;;;9.40;99.90;;;;;;6280439;22;20015;-91
2023/04/09 03:44:41;;;;;;;39.50;28.02;;;9.30;99.90;;;;;;6280437;22;20027;-91
2023/04/09 03:47:07;;;;;;;39.28;27.10;;;9.30;99.90;;;;;;6308418;22;20011;-91
2023/04/09 03:49:36;;;;;;;41.38;28.08;;;9.30;99.90;;;;;;6306663;22;20018;-91
2023/04/09 03:52:02;;;;;;;41.88;27.60;;;9.30;99.90;;;;;;6280534;22;20017;-91
2023/04/09 03:54:29;;;;;;;39.20;26.40;;;9.20;99.90;;;;;;6281019;22;20015;-91
2023/04/09 03:56:55;;;;;;;42.70;28.25;;;9.30;99.90;;;;;;6306732;22;20061;-91
2023/04/09 03:59:21;;;;;;;42.55;28.67;;;9.20;99.90;;;;;;6308021;22;20015;-91
2023/04/09 04:01:47;;;;;;;41.53;27.13;;;9.20;99.90;;;;;;6307567;22;20094;-91
2023/04/09 04:04:15;;;;;;;42.38;27.70;;;9.20;99.90;;;;;;6279052;22;20528;-91
2023/04/09 04:06:41;;;;;;;41.55;27.60;;;9.20;99.90;;;;;;6280211;22;20023;-91
2023/04/09 04:09:07;;;;;;;41.03;27.50;;;9.20;99.90;;;;;;6280388;22;20026;-91
2023/04/09 04:11:33;;;;;;;40.08;27.15;;;9.20;99.90;;;;;;6279161;22;20069;-91
2023/04/09 04:13:58;;;;;;;41.40;28.33;;;9.20;99.90;;;;;;6280850;22;20072;-91
2023/04/09 04:16:24;;;;;;;43.38;28.55;;;9.20;99.90;;;;;;6306302;22;20065;-91
2023/04/09 04:18:50;;;;;;;39.35;27.25;;;9.20;99.90;;;;;;6280337;22;20100;-91
2023/04/09 04:21:16;;;;;;;41.42;27.35;;;9.20;99.90;;;;;;6280614;22;20440;-90
2023/04/09 04:23:42;;;;;;;41.38;26.67;;;9.20;99.90;;;;;;6278809;22;20026;-91
2023/04/09 04:26:09;;;;;;;39.53;28.27;;;9.10;99.90;;;;;;6280365;22;20011;-91
2023/04/09 04:28:39;;;;;;;42.83;27.55;;;9.10;99.90;;;;;;6280270;22;20011;-92
2023/04/09 04:31:09;;;;;;;41.67;27.50;;;9.10;99.90;;;;;;6279132;22;20011;-91
2023/04/09 04:33:36;;;;;;;37.33;26.05;;;9.10;99.90;;;;;;6307189;22;20053;-91
2023/04/09 04:36:09;;;;;;;40.47;27.50;;;9.10;99.90;;;;;;6308195;22;20023;-91
2023/04/09 04:38:35;;;;;;;;;;;9.10;99.90;;;;;;6279213;22;20012;-90
2023/04/09 04:41:01;;;;;;;36.67;24.73;;;9.00;99.90;;;;;;6307359;22;19919;-91
2023/04/09 04:43:33;;;;;;;39.67;28.23;;;9.00;99.90;;;;;;6307487;22;20015;-91
2023/04/09 04:45:58;;;;;;;41.03;26.83;;;9.00;99.90;;;;;;6279315;22;20011;-90
2023/04/09 04:48:27;;;;;;;42.25;26.55;;;9.00;99.90;;;;;;6280011;22;20030;-90
2023/04/09 04:50:58;;;;;;;41.80;27.50;;;9.00;99.90;;;;;;6279873;22;20023;-91
2023/04/09 04:53:24;;;;;;;41.08;26.30;;;9.10;99.90;;;;;;6279379;22;20051;-91
2023/04/09 04:55:50;;;;;;;39.20;26.23;;;9.00;99.90;;;;;;6307225;22;20011;-91
2023/04/09 04:58:16;;;;;;;41.08;26.80;;;9.00;99.90;;;;;;6279424;22;20034;-91
2023/04/09 05:00:41;;;;;;;38.70;26.13;;;9.00;99.90;;;;;;6306344;22;20015;-91
2023/04/09 05:03:07;;;;;;;41.80;26.75;;;9.00;99.90;;;;;;6279903;22;20335;-91
2023/04/09 05:05:33;;;;;;;39.45;25.73;;;9.00;99.90;;;;;;6279155;22;20015;-91
2023/04/09 05:07:59;;;;;;;34.78;25.35;;;9.00;99.90;;;;;;6307726;22;20439;-91
2023/04/09 05:10:25;;;;;;;40.92;28.23;;;8.90;99.90;;;;;;6307555;22;20443;-90
2023/04/09 05:12:50;;;;;;;36.95;26.58;;;8.90;99.90;;;;;;6306292;22;20065;-91
2023/04/09 05:15:16;;;;;;;40.55;26.67;;;8.90;99.90;;;;;;6279635;22;20016;-91
2023/04/09 05:17:43;;;;;;;42.05;27.95;;;9.00;99.90;;;;;;6279806;22;20019;-90
2023/04/09 05:20:10;;;;;;;36.88;25.85;;;8.90;99.90;;;;;;6279134;22;20023;-90
2023/04/09 05:22:35;;;;;;;36.33;25.95;;;9.00;99.90;;;;;;6279357;22;20037;-90
2023/04/09 05:25:02;;;;;;;35.70;24.85;;;9.00;99.90;;;;;;6280118;22;20019;-90
2023/04/09 05:27:28;;;;;;;36.38;25.73;;;8.90;99.90;;;;;;6278999;22;20064;-90
2023/04/09 05:29:54;;;;;;;38.83;25.92;;;8.90;99.90;;;;;;6307180;22;20066;-91
2023/04/09 05:32:20;;;;;;;38.70;27.20;;;8.90;99.90;;;;;;6279846;22;20048;-90
2023/04/09 05:34:46;;;;;;;37.92;26.38;;;8.90;99.90;;;;;;6278951;22;20007;-91
2023/04/09 05:37:13;;;;;;;34.65;25.23;;;8.90;99.90;;;;;;6276143;22;20351;-90
2023/04/09 05:39:39;;;;;;;36.60;25.95;;;8.90;99.90;;;;;;6249226;22;20026;-91
2023/04/09 05:42:04;;;;;;;35.17;24.90;;;8.90;99.90;;;;;;6275378;22;20027;-91
2023/04/09 05:44:32;;;;;;;37.70;26.52;;;8.90;99.90;;;;;;6249023;22;20008;-91
2023/04/09 05:46:58;;;;;;;36.45;25.15;;;8.90;99.90;;;;;;6248933;22;20016;-90
2023/04/09 05:49:24;;;;;;;33.85;25.50;;;8.90;99.90;;;;;;6248504;22;20335;-90
2023/04/09 05:51:50;;;;;;;36.00;25.70;;;8.90;99.90;;;;;;6248991;22;20018;-91
2023/04/09 05:54:16;;;;;;;38.97;26.80;;;8.90;99.90;;;;;;6249142;22;20043;-91
2023/04/09 05:56:42;;;;;;;36.25;26.02;;;8.90;99.90;;;;;;6247398;22;20023;-91
2023/04/09 05:59:08;;;;;;;34.72;24.58;;;8.90;99.90;;;;;;6249049;22;20046;-91
2023/04/09 06:01:34;;;;;;;36.33;25.92;;;8.90;99.90;;;;;;6248174;22;20020;-90
2023/04/09 06:04:00;;;;;;;36.38;26.02;;;8.90;99.90;;;;;;6247896;22;20394;-90
2023/04/09 06:06:27;;;;;;;38.53;27.15;;;8.90;99.90;;;;;;6248811;22;20012;-90
2023/04/09 06:08:53;;;;;;;35.25;25.45;;;8.90;99.90;;;;;;6247657;22;20012;-91
2023/04/09 06:11:20;;;;;;;39.25;27.85;;;8.80;99.90;;;;;;6276250;22;20016;-90
2023/04/09 06:13:46;;;;;;;35.67;26.45;;;8.80;99.90;;;;;;6276168;22;20011;-90
2023/04/09 06:16:14;;;;;;;39.58;26.88;;;8.90;99.90;;;;;;6275204;22;20503;-90
2023/04/09 06:18:41;;;;;;;33.92;25.42;;;8.80;99.90;;;;;;6248621;22;20019;-91
2023/04/09 06:21:08;;;;;;;36.47;25.23;;;8.80;99.90;;;;;;6249246;22;20050;-90
2023/04/09 06:23:35;;;;;;;39.35;28.15;;;8.80;99.90;;;;;;6247814;22;20023;-90
2023/04/09 06:26:01;;;;;;;36.83;26.42;;;8.80;99.90;;;;;;6276611;22;20016;-90
2023/04/09 06:28:30;;;;;;;36.92;25.77;;;8.80;99.90;;;;;;6250549;22;20027;-90
2023/04/09 06:30:56;;;;;;;37.03;25.83;;;8.80;99.90;;;;;;6249814;22;20061;-90
2023/04/09 06:33:25;;;;;;;36.40;26.17;;;8.80;99.90;;;;;;6277577;22;20569;-90
2023/04/09 06:36:09;;;;;;;38.65;25.85;;;8.80;99.90;;;;;;6250617;22;20444;-90
2023/04/09 06:38:34;;;;;;;34.47;25.05;;;8.80;99.90;;;;;;6249117;22;20023;-90
2023/04/09 06:41:00;;;;;;;38.72;26.63;;;8.80;99.90;;;;;;6250917;22;20015;-90
2023/04/09 06:43:26;;;;;;;38.63;27.30;;;8.80;99.90;;;;;;6250529;22;20348;-90
2023/04/09 06:45:51;;;;;;;35.92;26.83;;;8.80;99.90;;;;;;6249464;22;20031;-90
2023/04/09 06:48:20;;;;;;;35.42;24.77;;;8.80;99.90;;;;;;6250866;22;20026;-90
2023/04/09 06:50:45;;;;;;;37.03;25.83;;;8.80;99.90;;;;;;6300039;22;20037;-90
2023/04/09 06:53:11;;;;;;;34.97;26.17;;;8.80;99.90;;;;;;6280617;22;20019;-90
2023/04/09 06:55:37;;;;;;;37.30;26.38;;;8.80;99.90;;;;;;6308220;22;20022;-90
2023/04/09 06:58:02;;;;;;;36.92;26.70;;;8.70;99.90;;;;;;6280235;22;20462;-90
2023/04/09 07:00:28;;;;;;;35.00;25.95;;;8.80;99.90;;;;;;6281043;22;20026;-90
2023/04/09 07:02:54;;;;;;;34.45;24.98;;;8.80;99.90;;;;;;6280680;22;20019;-90
2023/04/09 07:05:21;;;;;;;43.65;27.27;;;8.80;99.90;;;;;;6280463;22;20153;-91
2023/04/09 07:07:47;;;;;;;43.60;29.55;;;8.80;99.90;;;;;;6280434;22;20549;-90
2023/04/09 07:10:12;;;;;;;37.05;25.92;;;8.80;99.90;;;;;;6308759;22;20015;-90
2023/04/09 07:12:38;;;;;;;40.28;26.45;;;8.80;99.90;;;;;;6280098;22;20054;-90
2023/04/09 07:15:06;;;;;;;38.78;26.75;;;8.80;99.90;;;;;;6308938;22;20019;-90
2023/04/09 07:17:32;;;;;;;39.22;26.17;;;8.80;99.90;;;;;;6308294;22;20330;-90
2023/04/09 07:20:12;;;;;;;39.60;26.88;;;8.80;99.90;;;;;;6280358;22;20022;-90
2023/04/09 07:22:41;;;;;;;44.00;28.67;;;8.80;99.90;;;;;;6277584;22;20340;-91
2023/04/09 07:25:07;;;;;;;40.55;27.65;;;8.80;99.90;;;;;;6308438;22;20050;-91
2023/04/09 07:27:34;;;;;;;39.58;26.38;;;8.70;99.90;;;;;;6279926;22;20011;-90
2023/04/09 07:30:00;;;;;;;45.47;29.15;;;8.80;99.90;;;;;;6280999;22;20022;-90
2023/04/09 07:32:47;;;;;;;42.17;28.15;;;8.80;99.90;;;;;;6308456;22;20019;-91
2023/04/09 07:35:12;;;;;;;41.97;27.05;;;8.80;99.90;;;;;;6280382;22;20019;-90
2023/04/09 07:37:38;;;;;;;39.10;25.92;;;8.80;99.90;;;;;;6280272;22;20320;-91
2023/04/09 07:40:05;;;;;;;43.38;28.92;;;8.70;99.90;;;;;;6308377;22;20058;-90
2023/04/09 07:42:40;;;;;;;;;;;;;;;;;;;;;
2023/04/09 07:45:19;;;;;;;41.90;26.17;;;8.80;99.90;;;;;;6298179;22;20069;-90
2023/04/09 07:47:44;;;;;;;41.35;27.17;;;8.80;99.90;;;;;;6279224;22;20015;-90
2023/04/09 07:50:11;;;;;;;36.83;25.25;;;8.80;99.90;;;;;;6308312;22;20011;-91
2023/04/09 07:52:36;;;;;;;39.50;27.30;;;8.90;99.90;;;;;;6280141;22;20465;-90
2023/04/09 07:55:02;;;;;;;43.90;29.55;;;8.80;99.90;;;;;;6306861;22;20043;-90
2023/04/09 07:57:41;;;;;;;;;;;;;;;;;;;;;
2023/04/09 08:00:14;;;;;;;38.25;25.85;;;9.00;99.90;;;;;;6281139;22;20015;-91
2023/04/09 08:02:42;;;;;;;44.58;29.52;;;9.00;99.90;;;;;;6306932;22;20383;-90
2023/04/09 08:05:08;;;;;;;38.80;26.38;;;9.00;99.90;;;;;;6308099;22;20033;-90
2023/04/09 08:07:34;;;;;;;41.35;27.67;;;9.00;99.90;;;;;;6280155;22;20019;-90
2023/04/09 08:10:00;;;;;;;39.63;26.65;;;9.10;99.90;;;;;;6279403;22;20466;-90
2023/04/09 08:12:25;;;;;;;41.22;27.27;;;9.10;99.90;;;;;;6280559;22;20022;-91
2023/04/09 08:14:51;;;;;;;38.17;27.60;;;9.10;99.90;;;;;;6279900;22;20324;-90
2023/04/09 08:17:17;;;;;;;38.30;26.65;;;9.10;99.90;;;;;;6279136;22;20378;-90
2023/04/09 08:19:43;;;;;;;42.80;27.45;;;9.20;99.90;;;;;;6307843;22;20432;-90
2023/04/09 08:22:08;;;;;;;40.78;27.58;;;9.20;99.90;;;;;;6307286;22;20120;-90
2023/04/09 08:24:34;;;;;;;41.22;28.27;;;9.20;99.90;;;;;;6306699;22;20061;-90
2023/04/09 08:27:00;;;;;;;45.00;29.15;;;9.20;99.90;;;;;;6280152;22;20016;-90
2023/04/09 08:29:27;;;;;;;46.10;29.42;;;9.20;99.90;;;;;;6307160;22;20015;-90
2023/04/09 08:31:52;;;;;;;43.65;29.00;;;9.20;99.90;;;;;;6307503;22;20008;-90
2023/04/09 08:34:20;;;;;;;41.65;27.63;;;9.20;99.90;;;;;;6280154;22;20098;-91
2023/04/09 08:36:48;;;;;;;42.08;28.65;;;9.20;99.90;;;;;;6279055;22;20018;-90
2023/04/09 08:39:17;;;;;;;39.65;27.17;;;9.30;99.90;;;;;;6279686;22;20316;-90
2023/04/09 08:41:44;;;;;;;43.30;28.90;;;9.30;99.90;;;;;;6280116;22;20011;-91
2023/04/09 08:44:10;;;;;;;37.22;27.25;;;9.30;99.90;;;;;;6306958;22;20019;-90
2023/04/09 08:46:36;;;;;;;44.03;29.42;;;9.30;99.90;;;;;;6307464;22;20015;-91
2023/04/09 08:49:04;;;;;;;45.05;30.17;;;9.30;99.90;;;;;;6280274;22;20013;-89
2023/04/09 08:51:36;;;;;;;37.97;26.50;;;9.30;99.90;;;;;;6306764;22;20132;-90
2023/04/09 08:54:02;;;;;;;40.17;28.45;;;9.40;99.90;;;;;;6307741;22;20011;-90
2023/04/09 08:56:27;;;;;;;46.45;28.15;;;9.40;99.90;;;;;;6279842;22;20080;-90
2023/04/09 08:58:55;;;;;;;40.72;28.55;;;9.40;99.90;;;;;;6278923;22;20026;-91
2023/04/09 09:01:31;;;;;;;41.17;29.42;;;9.50;99.90;;;;;;6307687;22;20018;-90
2023/04/09 09:04:03;;;;;;;42.78;28.58;;;9.50;99.90;;;;;;6307401;22;20407;-90
2023/04/09 09:06:38;;;;;;;39.53;28.00;;;9.50;99.90;;;;;;6279065;22;20016;-90
2023/04/09 09:09:13;;;;;;;40.17;27.52;;;9.50;99.90;;;;;;6279976;22;20016;-90
2023/04/09 09:11:44;;;;;;;39.03;27.17;;;9.60;99.90;;;;;;6279154;22;20099;-92
2023/04/09 09:14:12;;;;;;;36.78;26.02;;;9.60;99.90;;;;;;6307537;22;20454;-91
2023/04/09 09:16:42;;;;;;;41.63;27.52;;;9.60;99.90;;;;;;6307053;22;20081;-91
2023/04/09 09:19:26;;;;;;;40.33;27.67;;;9.70;99.90;;;;;;6306408;22;20022;-90
2023/04/09 09:22:00;;;;;;;40.03;27.85;;;9.70;99.90;;;;;;6279952;22;20023;-91
2023/04/09 09:24:29;;;;;;;39.70;27.83;;;9.80;99.90;;;;;;6307386;22;20015;-91
2023/04/09 09:26:57;;;;;;;38.88;27.02;;;9.80;99.90;;;;;;6278460;22;20037;-90
2023/04/09 09:29:56;;;;;;;39.25;26.25;;;9.80;99.90;;;;;;6306803;22;20027;-90
2023/04/09 09:32:22;;;;;;;37.65;26.77;;;9.80;99.90;;;;;;6279957;22;20347;-91
2023/04/09 09:35:09;;;;;;;37.53;26.52;;;9.90;99.90;;;;;;6306409;22;20015;-90
2023/04/09 09:37:40;;;;;;;51.83;36.10;;;9.90;99.90;;;;;;6279732;22;20023;-91
2023/04/09 09:40:06;;;;;;;39.55;26.95;;;10.00;99.90;;;;;;6278863;22;20022;-90
2023/04/09 09:42:32;;;;;;;38.05;27.60;;;10.00;99.90;;;;;;6279703;22;20015;-91
2023/04/09 09:44:59;;;;;;;42.17;28.45;;;10.10;99.90;;;;;;6307282;22;20019;-91
2023/04/09 09:47:26;;;;;;;37.40;26.90;;;10.20;99.90;;;;;;6306702;22;20015;-91
2023/04/09 09:49:53;;;;;;;38.45;27.17;;;10.20;99.90;;;;;;6279295;22;20100;-90
2023/04/09 09:52:25;;;;;;;38.60;26.58;;;10.20;99.90;;;;;;6307301;22;20015;-90
2023/04/09 09:54:53;;;;;;;38.10;27.67;;;10.30;99.90;;;;;;6278465;22;20016;-90
2023/04/09 09:57:22;;;;;;;37.92;27.30;;;10.30;99.90;;;;;;6279750;22;20015;-90
2023/04/09 10:00:03;;;;;;;37.13;25.98;;;10.30;99.90;;;;;;6307477;22;20016;-91
2023/04/09 10:02:57;;;;;;;37.25;26.38;;;10.40;99.90;;;;;;6308178;22;20022;-90
2023/04/09 10:05:26;;;;;;;38.63;26.30;;;10.40;99.90;;;;;;6309306;22;20104;-91
2023/04/09 10:08:08;;;;;;;37.55;26.20;;;10.50;99.90;;;;;;6308706;22;20015;-91
2023/04/09 10:10:34;;;;;;;35.22;25.52;;;10.50;99.90;;;;;;6281277;22;20371;-91
2023/04/09 10:13:01;;;;;;;39.92;26.00;;;10.60;99.90;;;;;;6281332;22;20505;-92
2023/04/09 10:15:32;;;;;;;35.55;24.27;;;10.60;99.90;;;;;;6280692;22;20090;-90
2023/04/09 10:17:58;;;;;;;38.13;26.13;;;10.70;99.90;;;;;;6309304;22;20016;-91
2023/04/09 10:20:54;;;;;;;39.15;26.48;;;10.70;99.90;;;;;;6281515;22;20022;-91
2023/04/09 10:23:48;;;;;;;33.55;24.42;;;10.80;99.90;;;;;;6278347;22;20027;-91
2023/04/09 10:26:14;;;;;;;34.67;24.48;;;10.90;99.90;;;;;;6309197;22;20046;-91
2023/04/09 10:28:41;;;;;;;34.40;25.10;;;10.90;99.90;;;;;;6308738;22;20436;-91
2023/04/09 10:31:07;;;;;;;37.60;25.15;;;11.00;99.90;;;;;;6282552;22;20439;-91
2023/04/09 10:33:36;;;;;;;35.47;25.15;;;11.10;99.90;;;;;;6308684;22;20015;-90
2023/04/09 10:36:12;;;;;;;34.75;25.15;;;11.20;99.90;;;;;;6280907;22;20431;-91
2023/04/09 10:38:49;;;;;;;34.15;24.67;;;11.30;99.70;;;;;;6308722;22;20398;-91
2023/04/09 10:41:41;;;;;;;31.73;24.17;;;11.30;99.60;;;;;;6309042;22;20019;-91
2023/04/09 10:44:19;;;;;;;32.88;23.63;;;11.40;99.50;;;;;;6279446;22;20027;-91
2023/04/09 10:46:45;;;;;;;34.17;24.38;;;11.40;99.00;;;;;;6308843;22;20063;-92
2023/04/09 10:49:15;;;;;;;33.78;23.90;;;11.50;99.20;;;;;;6279077;22;20019;-91
2023/04/09 10:51:53;;;;;;;33.08;23.95;;;11.60;99.40;;;;;;6307367;22;20094;-90
2023/04/09 10:54:34;;;;;;;32.13;23.00;;;11.70;99.30;;;;;;6281355;22;20451;-91
2023/04/09 10:57:19;;;;;;;34.38;24.15;;;11.80;98.70;;;;;;6281465;22;20015;-91
2023/04/09 10:59:54;;;;;;;34.05;23.70;;;11.90;98.60;;;;;;6281195;22;20023;-91
2023/04/09 11:02:35;;;;;;;30.95;23.63;;;12.00;98.30;;;;;;6280879;22;20015;-91
2023/04/09 11:05:23;;;;;;;31.23;23.75;;;12.10;98.50;;;;;;6280190;22;20482;-91
2023/04/09 11:08:08;;;;;;;31.13;22.35;;;12.10;98.90;;;;;;6280822;22;20098;-91
2023/04/09 11:10:35;;;;;;;31.52;23.00;;;12.20;98.30;;;;;;6280899;22;20099;-91
2023/04/09 11:13:01;;;;;;;28.25;21.63;;;12.30;98.00;;;;;;6279517;22;20373;-91
2023/04/09 11:15:27;;;;;;;30.40;22.45;;;12.40;97.40;;;;;;6281449;22;20108;-91
2023/04/09 11:17:56;;;;;;;30.38;22.63;;;12.50;97.60;;;;;;6280625;22;20015;-91
2023/04/09 11:20:24;;;;;;;32.35;23.23;;;12.60;97.90;;;;;;6307283;22;20462;-91
2023/04/09 11:22:51;;;;;;;30.90;22.40;;;12.60;98.50;;;;;;6280556;22;20011;-92
2023/04/09 11:25:31;;;;;;;28.10;20.00;;;12.70;98.40;;;;;;6307684;22;20435;-91
2023/04/09 11:27:57;;;;;;;26.38;19.65;;;12.80;97.50;;;;;;6281002;22;20015;-91
2023/04/09 11:30:23;;;;;;;31.05;22.33;;;12.80;97.00;;;;;;6308442;22;20023;-91
2023/04/09 11:32:49;;;;;;;27.27;21.02;;;12.90;97.30;;;;;;6307379;22;20061;-91
2023/04/09 11:35:22;;;;;;;30.95;21.85;;;13.00;97.10;;;;;;6308333;22;20019;-91
2023/04/09 11:37:52;;;;;;;27.17;20.90;;;13.00;96.60;;;;;;6281067;22;20371;-91
2023/04/09 11:40:22;;;;;;;27.48;20.83;;;13.10;96.80;;;;;;6279924;22;20081;-91
2023/04/09 11:42:50;;;;;;;28.08;20.42;;;13.20;96.10;;;;;;6280575;22;20054;-90
2023/04/09 11:45:17;;;;;;;26.13;20.20;;;13.30;96.10;;;;;;6308584;22;20023;-91
2023/04/09 11:47:56;;;;;;;27.48;20.83;;;13.30;95.90;;;;;;6279627;22;20050;-91
2023/04/09 11:50:22;;;;;;;27.55;20.55;;;13.40;95.90;;;;;;6308113;22;20041;-91
2023/04/09 11:52:48;;;;;;;28.38;21.15;;;13.40;95.80;;;;;;6280777;22;20020;-91
2023/04/09 11:55:28;;;;;;;23.17;18.17;;;13.50;95.30;;;;;;6279772;22;20027;-92
2023/04/09 11:58:02;;;;;;;25.75;18.10;;;13.50;94.70;;;;;;6280442;22;20022;-91
2023/04/09 12:00:28;;;;;;;24.88;18.65;;;13.60;94.00;;;;;;6279651;22;20026;-91
2023/04/09 12:03:03;;;;;;;27.05;20.88;;;13.60;93.80;;;;;;6279969;22;20026;-91
2023/04/09 12:05:33;;;;;;;26.70;19.90;;;13.70;95.00;;;;;;6280791;22;20019;-91
2023/04/09 12:08:15;;;;;;;;;;;;;;;;;;;;;
2023/04/09 12:10:48;;;;;;;26.85;20.60;;;13.70;96.20;;;;;;6279036;22;20505;-91
2023/04/09 12:13:15;;;;;;;27.75;21.40;;;13.70;96.50;;;;;;6280111;22;20012;-91
2023/04/09 12:15:42;;;;;;;28.33;21.02;;;13.80;97.20;;;;;;6278872;22;20072;-91
2023/04/09 12:18:10;;;;;;;27.00;21.55;;;13.80;96.70;;;;;;6307914;22;20060;-91
2023/04/09 12:20:41;;;;;;;25.00;19.40;;;13.90;97.30;;;;;;6279877;22;20019;-92
2023/04/09 12:23:08;;;;;;;25.45;18.33;;;13.90;96.60;;;;;;6279505;22;20019;-91
2023/04/09 12:25:43;;;;;;;24.95;18.48;;;14.00;96.00;;;;;;6279831;22;20384;-91
2023/04/09 12:28:11;;;;;;;23.17;18.25;;;14.00;95.50;;;;;;6280279;22;20015;-91
2023/04/09 12:30:37;;;;;;;24.10;17.55;;;14.10;95.20;;;;;;6279300;22;20459;-90
2023/04/09 12:33:03;;;;;;;23.88;19.15;;;14.10;94.20;;;;;;6280307;22;20018;-92
2023/04/09 12:35:29;;;;;;;25.60;19.63;;;14.20;95.00;;;;;;6280306;22;20054;-90
2023/04/09 12:37:55;;;;;;;26.95;19.50;;;14.30;95.20;;;;;;6278818;22;20431;-90
2023/04/09 12:40:21;;;;;;;25.48;18.90;;;14.30;96.20;;;;;;6279992;22;20068;-91
2023/04/09 12:42:47;;;;;;;23.77;19.02;;;14.30;96.80;;;;;;6306191;22;20445;-90
2023/04/09 12:45:15;;;;;;;24.13;18.27;;;14.40;96.50;;;;;;6307785;22;20097;-90